sensor_id;sensor_type;location;lat;lon;timestamp;P1;durP1;ratioP1;P2;durP2;ratioP2
73136;SDS011;67767;45.636;11.756;2023-02-20T00:02:05;157.33;;;63.17;;
73136;SDS011;67767;45.636;11.756;2023-02-20T00:04:31;153.07;;;62.72;;
73136;SDS011;67767;45.636;11.756;2023-02-20T00:06:57;159.00;;;62.10;;
73136;SDS011;67767;45.636;11.756;2023-02-20T00:09:22;151.10;;;60.13;;
73136;SDS011;67767;45.636;11.756;2023-02-20T00:11:48;155.15;;;60.63;;
73136;SDS011;67767;45.636;11.756;2023-02-20T00:14:14;157.37;;;59.17;;
73136;SDS011;67767;45.636;11.756;2023-02-20T00:16:39;145.90;;;57.70;;
73136;SDS011;67767;45.636;11.756;2023-02-20T00:19:05;155.10;;;59.40;;
73136;SDS011;67767;45.636;11.756;2023-02-20T00:21:31;149.32;;;60.03;;
73136;SDS011;67767;45.636;11.756;2023-02-20T00:23:56;140.47;;;54.47;;
73136;SDS011;67767;45.636;11.756;2023-02-20T00:26:22;151.45;;;56.45;;
73136;SDS011;67767;45.636;11.756;2023-02-20T00:28:48;160.23;;;59.07;;
73136;SDS011;67767;45.636;11.756;2023-02-20T00:31:14;156.53;;;57.77;;
73136;SDS011;67767;45.636;11.756;2023-02-20T00:33:43;154.15;;;59.90;;
73136;SDS011;67767;45.636;11.756;2023-02-20T00:36:16;138.05;;;58.33;;
73136;SDS011;67767;45.636;11.756;2023-02-20T00:38:43;145.43;;;57.83;;
73136;SDS011;67767;45.636;11.756;2023-02-20T00:41:10;161.40;;;61.55;;
73136;SDS011;67767;45.636;11.756;2023-02-20T00:43:38;155.73;;;63.47;;
73136;SDS011;67767;45.636;11.756;2023-02-20T00:46:04;147.43;;;58.05;;
73136;SDS011;67767;45.636;11.756;2023-02-20T00:48:30;148.90;;;57.80;;
73136;SDS011;67767;45.636;11.756;2023-02-20T00:50:56;152.53;;;61.03;;
73136;SDS011;67767;45.636;11.756;2023-02-20T00:53:21;144.77;;;59.33;;
73136;SDS011;67767;45.636;11.756;2023-02-20T00:55:47;135.77;;;56.88;;
73136;SDS011;67767;45.636;11.756;2023-02-20T00:58:12;141.90;;;56.13;;
73136;SDS011;67767;45.636;11.756;2023-02-20T01:00:38;144.50;;;57.00;;
73136;SDS011;67767;45.636;11.756;2023-02-20T01:03:04;142.13;;;58.23;;
73136;SDS011;67767;45.636;11.756;2023-02-20T01:05:29;159.60;;;63.70;;
73136;SDS011;67767;45.636;11.756;2023-02-20T01:07:55;158.23;;;59.47;;
73136;SDS011;67767;45.636;11.756;2023-02-20T01:10:21;141.90;;;55.87;;
73136;SDS011;67767;45.636;11.756;2023-02-20T01:12:46;140.00;;;57.25;;
73136;SDS011;67767;45.636;11.756;2023-02-20T01:15:12;126.83;;;51.03;;
73136;SDS011;67767;45.636;11.756;2023-02-20T01:17:39;139.65;;;53.92;;
73136;SDS011;67767;45.636;11.756;2023-02-20T01:20:05;136.32;;;54.20;;
73136;SDS011;67767;45.636;11.756;2023-02-20T01:22:32;150.43;;;56.42;;
73136;SDS011;67767;45.636;11.756;2023-02-20T01:24:57;135.30;;;53.90;;
73136;SDS011;67767;45.636;11.756;2023-02-20T01:27:23;125.97;;;51.97;;
73136;SDS011;67767;45.636;11.756;2023-02-20T01:29:48;130.80;;;52.78;;
73136;SDS011;67767;45.636;11.756;2023-02-20T01:32:14;118.37;;;51.77;;
73136;SDS011;67767;45.636;11.756;2023-02-20T01:34:40;132.15;;;51.72;;
73136;SDS011;67767;45.636;11.756;2023-02-20T01:37:05;131.60;;;52.20;;
73136;SDS011;67767;45.636;11.756;2023-02-20T01:39:31;130.68;;;52.08;;
73136;SDS011;67767;45.636;11.756;2023-02-20T01:41:58;127.43;;;50.27;;
73136;SDS011;67767;45.636;11.756;2023-02-20T01:44:31;124.90;;;49.40;;
73136;SDS011;67767;45.636;11.756;2023-02-20T01:47:08;112.60;;;48.20;;
73136;SDS011;67767;45.636;11.756;2023-02-20T01:55:08;130.50;;;51.58;;
73136;SDS011;67767;45.636;11.756;2023-02-20T01:57:47;129.98;;;50.40;;
73136;SDS011;67767;45.636;11.756;2023-02-20T02:00:18;119.43;;;46.63;;
73136;SDS011;67767;45.636;11.756;2023-02-20T02:02:53;116.10;;;47.10;;
73136;SDS011;67767;45.636;11.756;2023-02-20T02:05:30;114.87;;;43.60;;
73136;SDS011;67767;45.636;11.756;2023-02-20T02:07:57;118.80;;;48.22;;
73136;SDS011;67767;45.636;11.756;2023-02-20T02:10:28;113.07;;;44.20;;
73136;SDS011;67767;45.636;11.756;2023-02-20T02:12:58;100.00;;;42.78;;
73136;SDS011;67767;45.636;11.756;2023-02-20T02:15:24;103.05;;;41.90;;
73136;SDS011;67767;45.636;11.756;2023-02-20T02:38:13;78.25;;;31.40;;
73136;SDS011;67767;45.636;11.756;2023-02-20T02:40:18;85.85;;;34.13;;
73136;SDS011;67767;45.636;11.756;2023-02-20T02:42:52;77.63;;;31.70;;
73136;SDS011;67767;45.636;11.756;2023-02-20T02:50:47;75.85;;;30.33;;
73136;SDS011;67767;45.636;11.756;2023-02-20T02:53:15;69.47;;;30.33;;
73136;SDS011;67767;45.636;11.756;2023-02-20T02:55:41;72.83;;;30.17;;
73136;SDS011;67767;45.636;11.756;2023-02-20T02:58:07;68.38;;;28.17;;
73136;SDS011;67767;45.636;11.756;2023-02-20T03:00:37;68.30;;;30.30;;
73136;SDS011;67767;45.636;11.756;2023-02-20T03:03:18;69.85;;;28.00;;
73136;SDS011;67767;45.636;11.756;2023-02-20T03:08:27;59.30;;;26.20;;
73136;SDS011;67767;45.636;11.756;2023-02-20T03:11:21;68.97;;;26.92;;
73136;SDS011;67767;45.636;11.756;2023-02-20T03:13:50;65.30;;;26.65;;
73136;SDS011;67767;45.636;11.756;2023-02-20T03:16:43;61.25;;;25.33;;
73136;SDS011;67767;45.636;11.756;2023-02-20T03:19:13;60.10;;;23.83;;
73136;SDS011;67767;45.636;11.756;2023-02-20T03:21:41;65.05;;;25.00;;
73136;SDS011;67767;45.636;11.756;2023-02-20T03:24:10;61.20;;;24.55;;
73136;SDS011;67767;45.636;11.756;2023-02-20T03:26:38;55.95;;;24.95;;
73136;SDS011;67767;45.636;11.756;2023-02-20T03:31:45;59.83;;;24.70;;
73136;SDS011;67767;45.636;11.756;2023-02-20T03:34:34;55.45;;;22.88;;
73136;SDS011;67767;45.636;11.756;2023-02-20T03:37:20;60.03;;;24.45;;
73136;SDS011;67767;45.636;11.756;2023-02-20T03:40:08;52.15;;;21.20;;
73136;SDS011;67767;45.636;11.756;2023-02-20T03:42:54;50.08;;;20.92;;
73136;SDS011;67767;45.636;11.756;2023-02-20T03:45:41;56.13;;;21.87;;
73136;SDS011;67767;45.636;11.756;2023-02-20T03:48:12;52.40;;;20.70;;
73136;SDS011;67767;45.636;11.756;2023-02-20T03:50:59;51.88;;;20.70;;
73136;SDS011;67767;45.636;11.756;2023-02-20T03:53:40;52.50;;;21.35;;
73136;SDS011;67767;45.636;11.756;2023-02-20T03:56:09;49.67;;;20.52;;
73136;SDS011;67767;45.636;11.756;2023-02-20T03:58:39;52.30;;;21.77;;
73136;SDS011;67767;45.636;11.756;2023-02-20T04:01:09;48.00;;;19.45;;
73136;SDS011;67767;45.636;11.756;2023-02-20T04:03:39;53.40;;;20.55;;
73136;SDS011;67767;45.636;11.756;2023-02-20T04:06:08;50.15;;;20.40;;
73136;SDS011;67767;45.636;11.756;2023-02-20T04:08:48;50.78;;;20.90;;
73136;SDS011;67767;45.636;11.756;2023-02-20T04:11:21;51.07;;;20.23;;
73136;SDS011;67767;45.636;11.756;2023-02-20T04:13:57;49.65;;;20.85;;
73136;SDS011;67767;45.636;11.756;2023-02-20T04:16:24;48.17;;;19.40;;
73136;SDS011;67767;45.636;11.756;2023-02-20T04:18:50;46.40;;;19.73;;
73136;SDS011;67767;45.636;11.756;2023-02-20T04:21:24;50.75;;;20.42;;
73136;SDS011;67767;45.636;11.756;2023-02-20T04:24:01;48.03;;;19.73;;
73136;SDS011;67767;45.636;11.756;2023-02-20T04:26:33;48.40;;;19.35;;
73136;SDS011;67767;45.636;11.756;2023-02-20T04:29:00;51.78;;;20.30;;
73136;SDS011;67767;45.636;11.756;2023-02-20T04:31:26;43.72;;;18.80;;
73136;SDS011;67767;45.636;11.756;2023-02-20T04:33:51;48.23;;;20.00;;
73136;SDS011;67767;45.636;11.756;2023-02-20T04:36:17;48.28;;;18.83;;
73136;SDS011;67767;45.636;11.756;2023-02-20T04:38:43;52.42;;;20.92;;
73136;SDS011;67767;45.636;11.756;2023-02-20T04:41:09;50.47;;;21.43;;
73136;SDS011;67767;45.636;11.756;2023-02-20T04:43:35;51.72;;;20.95;;
73136;SDS011;67767;45.636;11.756;2023-02-20T04:46:00;49.63;;;21.27;;
73136;SDS011;67767;45.636;11.756;2023-02-20T04:48:26;51.42;;;21.50;;
73136;SDS011;67767;45.636;11.756;2023-02-20T04:50:52;49.83;;;20.03;;
73136;SDS011;67767;45.636;11.756;2023-02-20T04:53:18;46.92;;;20.50;;
73136;SDS011;67767;45.636;11.756;2023-02-20T04:55:43;49.07;;;20.47;;
73136;SDS011;67767;45.636;11.756;2023-02-20T04:58:09;46.90;;;19.80;;
73136;SDS011;67767;45.636;11.756;2023-02-20T05:00:35;47.83;;;20.03;;
73136;SDS011;67767;45.636;11.756;2023-02-20T05:03:00;51.45;;;20.58;;
73136;SDS011;67767;45.636;11.756;2023-02-20T05:05:27;51.10;;;20.23;;
73136;SDS011;67767;45.636;11.756;2023-02-20T05:07:57;50.97;;;20.00;;
73136;SDS011;67767;45.636;11.756;2023-02-20T05:10:28;46.67;;;19.92;;
73136;SDS011;67767;45.636;11.756;2023-02-20T05:12:56;49.35;;;21.20;;
73136;SDS011;67767;45.636;11.756;2023-02-20T05:15:22;51.60;;;19.45;;
73136;SDS011;67767;45.636;11.756;2023-02-20T05:17:49;52.53;;;21.13;;
73136;SDS011;67767;45.636;11.756;2023-02-20T05:20:15;50.28;;;20.98;;
73136;SDS011;67767;45.636;11.756;2023-02-20T05:22:41;54.05;;;23.33;;
73136;SDS011;67767;45.636;11.756;2023-02-20T05:25:11;49.95;;;20.38;;
73136;SDS011;67767;45.636;11.756;2023-02-20T05:27:37;51.73;;;22.00;;
73136;SDS011;67767;45.636;11.756;2023-02-20T05:30:03;94.05;;;31.33;;
73136;SDS011;67767;45.636;11.756;2023-02-20T05:32:30;52.70;;;21.58;;
73136;SDS011;67767;45.636;11.756;2023-02-20T05:34:56;50.73;;;20.40;;
73136;SDS011;67767;45.636;11.756;2023-02-20T05:37:22;52.53;;;22.45;;
73136;SDS011;67767;45.636;11.756;2023-02-20T05:39:50;48.25;;;21.02;;
73136;SDS011;67767;45.636;11.756;2023-02-20T05:42:16;52.77;;;22.53;;
73136;SDS011;67767;45.636;11.756;2023-02-20T05:44:42;51.67;;;22.63;;
73136;SDS011;67767;45.636;11.756;2023-02-20T05:47:08;51.00;;;21.40;;
73136;SDS011;67767;45.636;11.756;2023-02-20T05:49:34;53.70;;;22.10;;
73136;SDS011;67767;45.636;11.756;2023-02-20T05:52:01;52.60;;;22.08;;
73136;SDS011;67767;45.636;11.756;2023-02-20T05:54:33;50.77;;;21.30;;
73136;SDS011;67767;45.636;11.756;2023-02-20T05:56:59;53.00;;;22.42;;
73136;SDS011;67767;45.636;11.756;2023-02-20T05:59:25;56.23;;;23.33;;
73136;SDS011;67767;45.636;11.756;2023-02-20T06:01:55;58.20;;;23.17;;
73136;SDS011;67767;45.636;11.756;2023-02-20T06:04:21;54.85;;;22.33;;
73136;SDS011;67767;45.636;11.756;2023-02-20T06:06:47;55.73;;;23.80;;
73136;SDS011;67767;45.636;11.756;2023-02-20T06:09:13;56.23;;;23.20;;
73136;SDS011;67767;45.636;11.756;2023-02-20T06:11:47;55.63;;;22.33;;
73136;SDS011;67767;45.636;11.756;2023-02-20T06:14:18;54.70;;;22.85;;
73136;SDS011;67767;45.636;11.756;2023-02-20T06:16:45;57.72;;;23.85;;
73136;SDS011;67767;45.636;11.756;2023-02-20T06:19:16;54.17;;;23.35;;
73136;SDS011;67767;45.636;11.756;2023-02-20T06:21:44;56.90;;;23.58;;
73136;SDS011;67767;45.636;11.756;2023-02-20T06:24:10;52.93;;;22.97;;
73136;SDS011;67767;45.636;11.756;2023-02-20T06:26:40;59.00;;;25.05;;
73136;SDS011;67767;45.636;11.756;2023-02-20T06:29:06;61.85;;;25.17;;
73136;SDS011;67767;45.636;11.756;2023-02-20T06:31:32;59.63;;;24.70;;
73136;SDS011;67767;45.636;11.756;2023-02-20T06:33:58;56.08;;;25.00;;
73136;SDS011;67767;45.636;11.756;2023-02-20T06:36:28;53.92;;;24.30;;
73136;SDS011;67767;45.636;11.756;2023-02-20T06:38:56;61.77;;;25.17;;
73136;SDS011;67767;45.636;11.756;2023-02-20T06:41:22;59.35;;;24.48;;
73136;SDS011;67767;45.636;11.756;2023-02-20T06:43:47;59.83;;;26.45;;
73136;SDS011;67767;45.636;11.756;2023-02-20T06:46:13;59.63;;;26.37;;
73136;SDS011;67767;45.636;11.756;2023-02-20T06:48:43;61.85;;;26.73;;
73136;SDS011;67767;45.636;11.756;2023-02-20T06:51:17;61.22;;;27.48;;
73136;SDS011;67767;45.636;11.756;2023-02-20T06:53:44;71.65;;;32.53;;
73136;SDS011;67767;45.636;11.756;2023-02-20T06:56:10;61.23;;;28.43;;
73136;SDS011;67767;45.636;11.756;2023-02-20T06:58:42;64.82;;;29.20;;
73136;SDS011;67767;45.636;11.756;2023-02-20T07:01:09;73.20;;;30.10;;
73136;SDS011;67767;45.636;11.756;2023-02-20T07:03:35;64.40;;;29.77;;
73136;SDS011;67767;45.636;11.756;2023-02-20T07:06:01;62.13;;;27.80;;
73136;SDS011;67767;45.636;11.756;2023-02-20T07:08:27;68.28;;;28.55;;
73136;SDS011;67767;45.636;11.756;2023-02-20T07:10:52;60.20;;;25.13;;
73136;SDS011;67767;45.636;11.756;2023-02-20T07:13:19;56.72;;;25.48;;
73136;SDS011;67767;45.636;11.756;2023-02-20T07:15:46;63.60;;;27.15;;
73136;SDS011;67767;45.636;11.756;2023-02-20T07:18:12;61.47;;;27.33;;
73136;SDS011;67767;45.636;11.756;2023-02-20T07:20:38;66.97;;;29.65;;
73136;SDS011;67767;45.636;11.756;2023-02-20T07:23:04;66.32;;;29.58;;
73136;SDS011;67767;45.636;11.756;2023-02-20T07:25:30;67.57;;;28.53;;
73136;SDS011;67767;45.636;11.756;2023-02-20T07:27:55;60.50;;;28.38;;
73136;SDS011;67767;45.636;11.756;2023-02-20T07:30:21;63.70;;;29.10;;
73136;SDS011;67767;45.636;11.756;2023-02-20T07:32:49;67.90;;;28.90;;
73136;SDS011;67767;45.636;11.756;2023-02-20T07:35:15;112.72;;;31.40;;
73136;SDS011;67767;45.636;11.756;2023-02-20T07:37:40;119.90;;;32.30;;
73136;SDS011;67767;45.636;11.756;2023-02-20T07:40:06;101.82;;;31.77;;
73136;SDS011;67767;45.636;11.756;2023-02-20T07:42:33;93.53;;;31.13;;
73136;SDS011;67767;45.636;11.756;2023-02-20T07:44:58;76.30;;;30.57;;
73136;SDS011;67767;45.636;11.756;2023-02-20T07:47:24;69.18;;;29.00;;
73136;SDS011;67767;45.636;11.756;2023-02-20T07:49:50;61.15;;;28.27;;
73136;SDS011;67767;45.636;11.756;2023-02-20T07:52:15;70.83;;;29.73;;
73136;SDS011;67767;45.636;11.756;2023-02-20T07:54:41;68.23;;;30.37;;
73136;SDS011;67767;45.636;11.756;2023-02-20T07:57:07;69.38;;;32.50;;
73136;SDS011;67767;45.636;11.756;2023-02-20T07:59:33;78.38;;;35.03;;
73136;SDS011;67767;45.636;11.756;2023-02-20T08:01:59;77.60;;;34.63;;
73136;SDS011;67767;45.636;11.756;2023-02-20T08:04:25;76.63;;;32.85;;
73136;SDS011;67767;45.636;11.756;2023-02-20T08:06:51;71.50;;;32.17;;
73136;SDS011;67767;45.636;11.756;2023-02-20T08:09:17;66.97;;;30.13;;
73136;SDS011;67767;45.636;11.756;2023-02-20T08:11:43;69.00;;;29.10;;
73136;SDS011;67767;45.636;11.756;2023-02-20T08:14:09;65.95;;;30.38;;
73136;SDS011;67767;45.636;11.756;2023-02-20T08:16:35;63.67;;;28.93;;
73136;SDS011;67767;45.636;11.756;2023-02-20T08:19:00;65.38;;;30.35;;
73136;SDS011;67767;45.636;11.756;2023-02-20T08:21:26;63.37;;;28.00;;
73136;SDS011;67767;45.636;11.756;2023-02-20T08:23:52;65.75;;;28.08;;
73136;SDS011;67767;45.636;11.756;2023-02-20T08:26:19;62.17;;;26.63;;
73136;SDS011;67767;45.636;11.756;2023-02-20T08:28:45;69.43;;;29.17;;
73136;SDS011;67767;45.636;11.756;2023-02-20T08:31:11;65.67;;;28.60;;
73136;SDS011;67767;45.636;11.756;2023-02-20T08:33:37;77.13;;;30.85;;
73136;SDS011;67767;45.636;11.756;2023-02-20T08:36:03;63.83;;;29.37;;
73136;SDS011;67767;45.636;11.756;2023-02-20T08:38:33;66.47;;;28.53;;
73136;SDS011;67767;45.636;11.756;2023-02-20T08:41:07;66.38;;;28.52;;
73136;SDS011;67767;45.636;11.756;2023-02-20T08:43:35;66.85;;;29.67;;
73136;SDS011;67767;45.636;11.756;2023-02-20T08:46:02;66.20;;;28.73;;
73136;SDS011;67767;45.636;11.756;2023-02-20T08:48:29;65.10;;;29.00;;
73136;SDS011;67767;45.636;11.756;2023-02-20T08:50:55;62.00;;;27.60;;
73136;SDS011;67767;45.636;11.756;2023-02-20T08:53:20;63.13;;;27.37;;
73136;SDS011;67767;45.636;11.756;2023-02-20T08:55:46;63.60;;;28.10;;
73136;SDS011;67767;45.636;11.756;2023-02-20T08:58:12;66.38;;;29.08;;
73136;SDS011;67767;45.636;11.756;2023-02-20T09:00:38;66.83;;;30.97;;
73136;SDS011;67767;45.636;11.756;2023-02-20T09:03:04;65.47;;;29.42;;
73136;SDS011;67767;45.636;11.756;2023-02-20T09:05:33;66.35;;;28.67;;
73136;SDS011;67767;45.636;11.756;2023-02-20T09:07:59;66.37;;;29.63;;
73136;SDS011;67767;45.636;11.756;2023-02-20T09:10:25;62.85;;;28.83;;
73136;SDS011;67767;45.636;11.756;2023-02-20T09:12:51;61.85;;;28.15;;
73136;SDS011;67767;45.636;11.756;2023-02-20T09:15:16;60.20;;;27.47;;
73136;SDS011;67767;45.636;11.756;2023-02-20T09:17:43;53.92;;;25.40;;
73136;SDS011;67767;45.636;11.756;2023-02-20T09:20:10;52.55;;;25.02;;
73136;SDS011;67767;45.636;11.756;2023-02-20T09:22:36;51.80;;;24.27;;
73136;SDS011;67767;45.636;11.756;2023-02-20T09:25:02;48.33;;;23.27;;
73136;SDS011;67767;45.636;11.756;2023-02-20T09:27:29;52.88;;;24.55;;
73136;SDS011;67767;45.636;11.756;2023-02-20T09:29:54;52.90;;;23.70;;
73136;SDS011;67767;45.636;11.756;2023-02-20T09:32:20;49.00;;;22.90;;
73136;SDS011;67767;45.636;11.756;2023-02-20T09:34:46;47.63;;;22.27;;
73136;SDS011;67767;45.636;11.756;2023-02-20T09:37:11;56.90;;;24.00;;
73136;SDS011;67767;45.636;11.756;2023-02-20T09:39:38;57.58;;;21.80;;
73136;SDS011;67767;45.636;11.756;2023-02-20T09:50:05;46.50;;;21.08;;
73136;SDS011;67767;45.636;11.756;2023-02-20T09:52:38;48.43;;;22.40;;
73136;SDS011;67767;45.636;11.756;2023-02-20T09:55:13;49.42;;;21.42;;
73136;SDS011;67767;45.636;11.756;2023-02-20T09:57:45;46.05;;;20.45;;
73136;SDS011;67767;45.636;11.756;2023-02-20T10:00:27;44.92;;;21.17;;
73136;SDS011;67767;45.636;11.756;2023-02-20T10:03:14;47.17;;;21.70;;
73136;SDS011;67767;45.636;11.756;2023-02-20T10:05:44;46.10;;;20.50;;
73136;SDS011;67767;45.636;11.756;2023-02-20T10:08:18;47.35;;;21.50;;
73136;SDS011;67767;45.636;11.756;2023-02-20T10:10:47;37.78;;;18.70;;
73136;SDS011;67767;45.636;11.756;2023-02-20T10:16:07;39.63;;;17.75;;
73136;SDS011;67767;45.636;11.756;2023-02-20T10:18:39;35.50;;;16.97;;
73136;SDS011;67767;45.636;11.756;2023-02-20T10:24:17;35.80;;;17.73;;
73136;SDS011;67767;45.636;11.756;2023-02-20T10:26:58;36.25;;;17.70;;
73136;SDS011;67767;45.636;11.756;2023-02-20T10:29:41;34.60;;;16.70;;
73136;SDS011;67767;45.636;11.756;2023-02-20T10:32:11;34.20;;;16.57;;
73136;SDS011;67767;45.636;11.756;2023-02-20T10:34:53;35.35;;;17.63;;
73136;SDS011;67767;45.636;11.756;2023-02-20T10:37:25;33.72;;;16.95;;
73136;SDS011;67767;45.636;11.756;2023-02-20T10:39:58;33.50;;;17.05;;
73136;SDS011;67767;45.636;11.756;2023-02-20T10:42:29;31.95;;;16.70;;
73136;SDS011;67767;45.636;11.756;2023-02-20T10:47:47;33.28;;;16.15;;
73136;SDS011;67767;45.636;11.756;2023-02-20T10:50:24;29.15;;;15.45;;
73136;SDS011;67767;45.636;11.756;2023-02-20T10:53:11;37.42;;;16.90;;
73136;SDS011;67767;45.636;11.756;2023-02-20T10:59:12;34.53;;;17.83;;
73136;SDS011;67767;45.636;11.756;2023-02-20T11:01:18;33.90;;;16.95;;
73136;SDS011;67767;45.636;11.756;2023-02-20T11:06:19;34.13;;;17.27;;
73136;SDS011;67767;45.636;11.756;2023-02-20T11:08:47;35.17;;;16.55;;
73136;SDS011;67767;45.636;11.756;2023-02-20T11:11:46;32.37;;;16.97;;
73136;SDS011;67767;45.636;11.756;2023-02-20T11:17:10;33.47;;;16.98;;
73136;SDS011;67767;45.636;11.756;2023-02-20T11:19:52;31.27;;;16.27;;
73136;SDS011;67767;45.636;11.756;2023-02-20T11:22:39;31.05;;;17.42;;
73136;SDS011;67767;45.636;11.756;2023-02-20T11:25:26;34.27;;;17.47;;
73136;SDS011;67767;45.636;11.756;2023-02-20T11:27:57;32.70;;;18.15;;
73136;SDS011;67767;45.636;11.756;2023-02-20T11:30:33;40.92;;;20.15;;
73136;SDS011;67767;45.636;11.756;2023-02-20T11:33:22;40.15;;;20.38;;
73136;SDS011;67767;45.636;11.756;2023-02-20T11:35:50;33.25;;;18.75;;
73136;SDS011;67767;45.636;11.756;2023-02-20T11:40:46;34.33;;;18.92;;
73136;SDS011;67767;45.636;11.756;2023-02-20T11:46:31;30.23;;;18.03;;
73136;SDS011;67767;45.636;11.756;2023-02-20T11:54:32;33.42;;;18.42;;
73136;SDS011;67767;45.636;11.756;2023-02-20T11:59:45;42.63;;;18.35;;
73136;SDS011;67767;45.636;11.756;2023-02-20T12:04:44;31.67;;;18.77;;
73136;SDS011;67767;45.636;11.756;2023-02-20T12:07:39;29.48;;;16.85;;
73136;SDS011;67767;45.636;11.756;2023-02-20T12:10:18;32.87;;;17.50;;
73136;SDS011;67767;45.636;11.756;2023-02-20T12:13:08;32.30;;;18.08;;
73136;SDS011;67767;45.636;11.756;2023-02-20T12:15:38;34.60;;;18.70;;
73136;SDS011;67767;45.636;11.756;2023-02-20T12:20:32;29.10;;;18.03;;
73136;SDS011;67767;45.636;11.756;2023-02-20T12:25:30;31.33;;;17.98;;
73136;SDS011;67767;45.636;11.756;2023-02-20T12:45:04;32.53;;;18.70;;
73136;SDS011;67767;45.636;11.756;2023-02-20T12:47:43;29.60;;;17.90;;
73136;SDS011;67767;45.636;11.756;2023-02-20T12:50:25;32.85;;;18.25;;
73136;SDS011;67767;45.636;11.756;2023-02-20T12:53:12;32.28;;;18.88;;
73136;SDS011;67767;45.636;11.756;2023-02-20T12:55:53;35.13;;;19.23;;
73136;SDS011;67767;45.636;11.756;2023-02-20T12:58:33;33.78;;;18.98;;
73136;SDS011;67767;45.636;11.756;2023-02-20T13:01:15;32.65;;;18.38;;
73136;SDS011;67767;45.636;11.756;2023-02-20T13:09:25;29.13;;;16.80;;
73136;SDS011;67767;45.636;11.756;2023-02-20T13:11:57;30.50;;;17.67;;
73136;SDS011;67767;45.636;11.756;2023-02-20T13:22:36;30.25;;;18.25;;
73136;SDS011;67767;45.636;11.756;2023-02-20T13:27:59;45.05;;;19.02;;
73136;SDS011;67767;45.636;11.756;2023-02-20T13:33:49;32.35;;;17.90;;
73136;SDS011;67767;45.636;11.756;2023-02-20T13:36:38;30.63;;;17.63;;
73136;SDS011;67767;45.636;11.756;2023-02-20T13:44:42;30.70;;;18.97;;
73136;SDS011;67767;45.636;11.756;2023-02-20T14:02:45;31.97;;;19.07;;
73136;SDS011;67767;45.636;11.756;2023-02-20T14:05:18;39.17;;;20.08;;
73136;SDS011;67767;45.636;11.756;2023-02-20T14:07:46;34.38;;;21.02;;
73136;SDS011;67767;45.636;11.756;2023-02-20T14:13:01;35.72;;;19.80;;
73136;SDS011;67767;45.636;11.756;2023-02-20T14:15:32;39.35;;;20.83;;
73136;SDS011;67767;45.636;11.756;2023-02-20T14:18:17;35.78;;;20.67;;
73136;SDS011;67767;45.636;11.756;2023-02-20T14:20:44;31.93;;;20.17;;
73136;SDS011;67767;45.636;11.756;2023-02-20T14:23:28;37.50;;;22.13;;
73136;SDS011;67767;45.636;11.756;2023-02-20T14:25:56;35.38;;;19.75;;
73136;SDS011;67767;45.636;11.756;2023-02-20T14:28:23;41.67;;;22.45;;
73136;SDS011;67767;45.636;11.756;2023-02-20T14:31:02;35.50;;;22.52;;
73136;SDS011;67767;45.636;11.756;2023-02-20T14:33:31;36.67;;;20.80;;
73136;SDS011;67767;45.636;11.756;2023-02-20T14:41:27;38.90;;;20.63;;
73136;SDS011;67767;45.636;11.756;2023-02-20T14:43:55;36.45;;;20.08;;
73136;SDS011;67767;45.636;11.756;2023-02-20T14:46:27;35.13;;;19.97;;
73136;SDS011;67767;45.636;11.756;2023-02-20T14:49:14;37.60;;;20.75;;
73136;SDS011;67767;45.636;11.756;2023-02-20T14:51:46;37.00;;;20.35;;
73136;SDS011;67767;45.636;11.756;2023-02-20T14:56:43;37.50;;;20.67;;
73136;SDS011;67767;45.636;11.756;2023-02-20T15:01:58;41.30;;;21.63;;
73136;SDS011;67767;45.636;11.756;2023-02-20T15:04:35;42.75;;;22.13;;
73136;SDS011;67767;45.636;11.756;2023-02-20T15:07:03;38.83;;;21.60;;
73136;SDS011;67767;45.636;11.756;2023-02-20T15:09:34;40.95;;;21.63;;
73136;SDS011;67767;45.636;11.756;2023-02-20T15:12:03;45.50;;;20.90;;
73136;SDS011;67767;45.636;11.756;2023-02-20T15:14:33;40.35;;;21.42;;
73136;SDS011;67767;45.636;11.756;2023-02-20T15:17:27;41.50;;;20.57;;
73136;SDS011;67767;45.636;11.756;2023-02-20T15:19:57;39.97;;;20.90;;
73136;SDS011;67767;45.636;11.756;2023-02-20T15:25:10;44.22;;;22.20;;
73136;SDS011;67767;45.636;11.756;2023-02-20T15:28:04;41.33;;;21.83;;
73136;SDS011;67767;45.636;11.756;2023-02-20T15:30:30;45.38;;;23.45;;
73136;SDS011;67767;45.636;11.756;2023-02-20T15:32:56;45.97;;;22.88;;
73136;SDS011;67767;45.636;11.756;2023-02-20T15:35:24;43.40;;;22.60;;
73136;SDS011;67767;45.636;11.756;2023-02-20T15:37:55;43.43;;;22.13;;
73136;SDS011;67767;45.636;11.756;2023-02-20T15:40:27;43.38;;;22.13;;
73136;SDS011;67767;45.636;11.756;2023-02-20T15:42:54;42.15;;;22.30;;
73136;SDS011;67767;45.636;11.756;2023-02-20T15:45:27;43.20;;;21.38;;
73136;SDS011;67767;45.636;11.756;2023-02-20T15:47:55;47.13;;;22.95;;
73136;SDS011;67767;45.636;11.756;2023-02-20T15:50:21;47.40;;;22.27;;
73136;SDS011;67767;45.636;11.756;2023-02-20T15:52:47;50.58;;;22.65;;
73136;SDS011;67767;45.636;11.756;2023-02-20T15:55:14;41.50;;;21.08;;
73136;SDS011;67767;45.636;11.756;2023-02-20T15:57:42;45.42;;;23.00;;
73136;SDS011;67767;45.636;11.756;2023-02-20T16:00:32;40.63;;;21.00;;
73136;SDS011;67767;45.636;11.756;2023-02-20T16:02:57;45.53;;;22.27;;
73136;SDS011;67767;45.636;11.756;2023-02-20T16:05:25;46.60;;;22.80;;
73136;SDS011;67767;45.636;11.756;2023-02-20T16:07:51;46.63;;;23.42;;
73136;SDS011;67767;45.636;11.756;2023-02-20T16:10:18;53.22;;;23.90;;
73136;SDS011;67767;45.636;11.756;2023-02-20T16:12:46;57.30;;;27.23;;
73136;SDS011;67767;45.636;11.756;2023-02-20T16:15:17;67.23;;;32.47;;
73136;SDS011;67767;45.636;11.756;2023-02-20T16:17:45;84.68;;;37.22;;
73136;SDS011;67767;45.636;11.756;2023-02-20T16:22:41;82.47;;;36.78;;
73136;SDS011;67767;45.636;11.756;2023-02-20T16:25:08;66.00;;;29.00;;
73136;SDS011;67767;45.636;11.756;2023-02-20T16:27:35;60.83;;;29.50;;
73136;SDS011;67767;45.636;11.756;2023-02-20T16:30:01;68.78;;;30.83;;
73136;SDS011;67767;45.636;11.756;2023-02-20T16:32:27;71.97;;;30.43;;
73136;SDS011;67767;45.636;11.756;2023-02-20T16:34:55;72.13;;;31.40;;
73136;SDS011;67767;45.636;11.756;2023-02-20T16:37:22;63.90;;;29.30;;
73136;SDS011;67767;45.636;11.756;2023-02-20T16:39:49;68.95;;;32.38;;
73136;SDS011;67767;45.636;11.756;2023-02-20T16:44:54;69.80;;;30.70;;
73136;SDS011;67767;45.636;11.756;2023-02-20T16:47:23;69.55;;;31.52;;
73136;SDS011;67767;45.636;11.756;2023-02-20T16:49:51;65.03;;;30.33;;
73136;SDS011;67767;45.636;11.756;2023-02-20T16:52:22;70.85;;;31.00;;
73136;SDS011;67767;45.636;11.756;2023-02-20T16:54:50;64.60;;;30.57;;
73136;SDS011;67767;45.636;11.756;2023-02-20T16:57:19;67.95;;;32.17;;
73136;SDS011;67767;45.636;11.756;2023-02-20T16:59:47;66.50;;;32.28;;
73136;SDS011;67767;45.636;11.756;2023-02-20T17:02:19;71.40;;;32.55;;
73136;SDS011;67767;45.636;11.756;2023-02-20T17:04:46;72.05;;;35.42;;